Time;durP1;ratioP1;P1;durP2;ratioP2;P2;SDS_P1;SDS_P2;PMS_P1;PMS_P2;Temp;Humidity;BMP_temperature;BMP_pressure;BME280_temperature;BME280_humidity;BME280_pressure;Samples;Min_cycle;Max_cycle;Signal;HPM_P1;HPM_P2
2022/03/26 00:00:09;;;;;;;60.83;26.33;;;2.30;99.90;;;;;;4995906;28;20066;-77
2022/03/26 00:02:35;;;;;;;62.55;27.45;;;2.20;99.90;;;;;;4996122;28;20128;-77
2022/03/26 00:05:01;;;;;;;69.53;29.23;;;2.20;99.90;;;;;;4995713;28;20098;-78
2022/03/26 00:07:27;;;;;;;65.78;28.90;;;2.20;99.90;;;;;;4995720;28;20049;-77
2022/03/26 00:09:53;;;;;;;59.60;27.52;;;2.20;99.90;;;;;;4995626;28;20485;-77
2022/03/26 00:12:18;;;;;;;66.43;28.92;;;2.30;99.90;;;;;;4993926;28;20047;-77
2022/03/26 00:14:44;;;;;;;69.35;29.17;;;2.40;99.90;;;;;;4995359;28;20046;-77
2022/03/26 00:17:10;;;;;;;67.85;30.23;;;2.40;99.90;;;;;;4994303;28;20052;-77
2022/03/26 00:19:35;;;;;;;65.43;28.52;;;2.40;99.90;;;;;;4995653;28;20081;-77
2022/03/26 00:22:01;;;;;;;68.45;29.30;;;2.50;99.90;;;;;;4995312;28;20125;-77
2022/03/26 00:24:26;;;;;;;70.10;32.28;;;2.40;99.90;;;;;;4995396;28;20096;-78
2022/03/26 00:26:52;;;;;;;65.70;29.80;;;2.30;99.90;;;;;;4994972;28;20042;-77
2022/03/26 00:29:18;;;;;;;64.25;29.52;;;2.30;99.90;;;;;;4995279;28;20046;-77
2022/03/26 00:31:44;;;;;;;68.65;30.98;;;2.30;99.90;;;;;;4994143;28;20046;-77
2022/03/26 00:34:10;;;;;;;71.68;31.05;;;2.30;99.90;;;;;;4995271;28;20049;-77
2022/03/26 00:36:35;;;;;;;80.72;37.17;;;2.20;99.90;;;;;;4995107;28;20081;-77
2022/03/26 00:39:01;;;;;;;88.03;36.30;;;2.20;99.90;;;;;;4993685;28;20401;-77
2022/03/26 00:41:28;;;;;;;78.28;38.50;;;2.20;99.90;;;;;;4994870;28;20046;-78
2022/03/26 00:43:55;;;;;;;92.65;36.72;;;2.20;99.90;;;;;;4994583;28;20054;-77
2022/03/26 00:46:21;;;;;;;89.93;37.35;;;2.20;99.90;;;;;;4994966;28;20157;-78
2022/03/26 00:48:47;;;;;;;85.97;35.30;;;2.20;99.90;;;;;;4994905;28;20050;-78
2022/03/26 00:51:15;;;;;;;89.43;38.10;;;2.20;99.90;;;;;;4994586;28;20043;-77
2022/03/26 00:53:45;;;;;;;93.57;40.08;;;2.30;99.90;;;;;;4994536;28;20488;-77
2022/03/26 00:56:11;;;;;;;94.32;39.33;;;2.10;99.90;;;;;;4994843;28;20046;-77
2022/03/26 00:58:38;;;;;;;103.07;42.00;;;2.10;99.90;;;;;;4994683;28;20149;-77
2022/03/26 01:01:03;;;;;;;96.18;40.35;;;2.10;99.90;;;;;;4994788;28;20125;-77
2022/03/26 01:03:29;;;;;;;104.00;42.70;;;2.10;99.90;;;;;;4995247;28;20078;-77
2022/03/26 01:05:54;;;;;;;94.97;42.90;;;2.10;99.90;;;;;;4995496;28;20374;-77
2022/03/26 01:08:20;;;;;;;97.50;40.45;;;2.10;99.90;;;;;;4995149;28;20053;-77
2022/03/26 01:10:46;;;;;;;98.28;42.00;;;2.00;99.90;;;;;;4994734;28;20038;-77
2022/03/26 01:13:12;;;;;;;92.70;42.50;;;2.00;99.90;;;;;;4993439;28;20065;-77
2022/03/26 01:15:38;;;;;;;93.90;40.75;;;1.90;99.90;;;;;;4994002;28;20038;-77
2022/03/26 01:18:04;;;;;;;90.80;39.45;;;2.00;99.90;;;;;;4994863;28;20084;-77
2022/03/26 01:20:29;;;;;;;101.85;42.70;;;1.90;99.90;;;;;;4995062;28;20197;-76
2022/03/26 01:22:56;;;;;;;94.20;39.50;;;1.90;99.90;;;;;;4994891;28;20058;-77
2022/03/26 01:25:21;;;;;;;100.93;39.33;;;1.80;99.90;;;;;;4993964;28;20116;-77
2022/03/26 01:27:47;;;;;;;94.10;40.05;;;1.80;99.90;;;;;;4994853;28;20042;-77
2022/03/26 01:30:13;;;;;;;101.10;43.10;;;1.80;99.90;;;;;;4994992;28;20042;-77
2022/03/26 01:32:39;;;;;;;105.45;42.88;;;1.70;99.90;;;;;;4993035;28;20039;-77
2022/03/26 01:35:05;;;;;;;100.15;40.97;;;1.70;99.90;;;;;;4995304;28;20039;-77
2022/03/26 01:37:31;;;;;;;107.28;47.13;;;1.70;99.90;;;;;;4977718;28;20089;-78
2022/03/26 01:39:56;;;;;;;111.72;47.22;;;1.70;99.90;;;;;;4994802;28;20038;-77
2022/03/26 01:42:22;;;;;;;131.60;51.15;;;1.70;99.90;;;;;;4994791;28;20042;-77
2022/03/26 01:44:48;;;;;;;127.82;49.35;;;1.70;99.90;;;;;;4994442;28;20546;-77
2022/03/26 01:47:13;;;;;;;147.70;57.78;;;1.70;99.90;;;;;;4993327;28;20508;-78
2022/03/26 01:49:39;;;;;;;154.98;57.75;;;1.70;99.90;;;;;;4993024;28;20057;-77
2022/03/26 01:52:07;;;;;;;141.10;52.67;;;1.70;99.90;;;;;;4994367;28;20045;-77
2022/03/26 01:54:33;;;;;;;134.23;51.05;;;1.70;99.90;;;;;;4994702;28;20403;-77
2022/03/26 01:56:59;;;;;;;148.85;57.22;;;1.70;99.90;;;;;;4994990;28;20113;-77
2022/03/26 01:59:26;;;;;;;143.70;52.70;;;1.70;99.90;;;;;;4994765;28;20532;-78
2022/03/26 02:01:52;;;;;;;149.00;55.50;;;1.70;99.90;;;;;;4994402;28;20536;-77
2022/03/26 02:04:18;;;;;;;141.80;56.67;;;1.70;99.90;;;;;;4994341;28;20104;-77
2022/03/26 02:06:44;;;;;;;143.80;54.95;;;1.70;99.90;;;;;;4994431;28;20070;-77
2022/03/26 02:09:12;;;;;;;138.65;51.78;;;1.70;99.90;;;;;;4994671;28;20429;-77
2022/03/26 02:11:43;;;;;;;145.23;52.00;;;1.60;99.90;;;;;;4992849;28;20061;-78
2022/03/26 02:14:10;;;;;;;121.97;48.83;;;1.60;99.90;;;;;;4994251;28;20129;-78
2022/03/26 02:16:38;;;;;;;127.35;46.05;;;1.50;99.90;;;;;;4993846;28;20046;-78
2022/03/26 02:19:06;;;;;;;126.03;47.88;;;1.50;99.90;;;;;;4993693;28;20077;-78
2022/03/26 02:21:34;;;;;;;144.32;52.17;;;1.40;99.90;;;;;;4994195;28;20082;-78
2022/03/26 02:24:02;;;;;;;134.38;54.63;;;1.40;99.90;;;;;;4994201;28;20050;-78
2022/03/26 02:26:27;;;;;;;130.20;49.05;;;1.40;99.90;;;;;;4994563;28;20050;-78
2022/03/26 02:28:54;;;;;;;129.27;51.30;;;1.30;99.90;;;;;;4998032;28;20038;-78
2022/03/26 02:31:20;;;;;;;127.50;49.83;;;1.30;99.90;;;;;;4997017;28;20497;-78
2022/03/26 02:33:46;;;;;;;159.88;56.13;;;1.30;99.90;;;;;;4997788;28;20057;-78
2022/03/26 02:36:12;;;;;;;153.45;57.55;;;1.30;99.90;;;;;;4997782;28;20365;-78
2022/03/26 02:38:39;;;;;;;150.10;53.70;;;1.30;99.90;;;;;;4996793;28;20121;-78
2022/03/26 02:41:06;;;;;;;148.43;57.13;;;1.30;99.90;;;;;;4998213;28;20046;-78
2022/03/26 02:43:32;;;;;;;150.23;55.17;;;1.20;99.90;;;;;;4996295;28;20133;-78
2022/03/26 02:45:58;;;;;;;134.80;54.33;;;1.20;99.90;;;;;;4997676;28;20118;-78
2022/03/26 02:48:23;;;;;;;151.57;57.33;;;1.20;99.90;;;;;;4998807;28;20042;-78
2022/03/26 02:50:49;;;;;;;162.80;55.67;;;1.10;99.90;;;;;;5001178;28;20081;-78
2022/03/26 02:53:15;;;;;;;137.98;55.55;;;1.10;99.90;;;;;;4999121;28;20126;-78
2022/03/26 02:55:41;;;;;;;167.02;58.25;;;1.10;99.90;;;;;;4996759;28;20565;-78
2022/03/26 02:58:08;;;;;;;158.40;56.30;;;1.00;99.90;;;;;;4997240;28;20113;-78
2022/03/26 03:00:36;;;;;;;149.52;55.53;;;0.90;99.90;;;;;;4997037;28;20046;-78
2022/03/26 03:03:02;;;;;;;163.30;56.55;;;0.90;99.90;;;;;;4996911;28;20050;-78
2022/03/26 03:05:28;;;;;;;160.68;54.88;;;0.90;99.90;;;;;;4997030;28;20050;-78
2022/03/26 03:07:54;;;;;;;166.00;55.45;;;0.90;99.90;;;;;;4996684;28;20405;-78
2022/03/26 03:10:20;;;;;;;140.75;51.22;;;0.90;99.90;;;;;;4996677;28;20042;-78
2022/03/26 03:12:47;;;;;;;158.40;57.00;;;0.90;99.90;;;;;;4996639;28;20351;-78
2022/03/26 03:15:14;;;;;;;158.88;54.67;;;0.90;99.90;;;;;;4996850;28;20141;-78
2022/03/26 03:17:41;;;;;;;164.95;57.58;;;0.90;99.90;;;;;;4996351;28;20057;-77
2022/03/26 03:20:08;;;;;;;179.25;65.50;;;0.90;99.90;;;;;;4995483;28;20093;-78
2022/03/26 03:22:34;;;;;;;189.00;63.42;;;0.90;99.90;;;;;;4996699;28;20524;-78
2022/03/26 03:25:00;;;;;;;172.07;58.20;;;0.80;99.90;;;;;;4996610;28;20121;-78
2022/03/26 03:27:25;;;;;;;190.30;61.70;;;0.80;99.90;;;;;;4996506;28;20136;-78
2022/03/26 03:29:52;;;;;;;174.70;57.30;;;0.90;99.90;;;;;;4996662;28;20046;-78
2022/03/26 03:32:18;;;;;;;178.10;55.50;;;0.80;99.90;;;;;;4995180;28;20389;-77
2022/03/26 03:34:44;;;;;;;168.63;56.45;;;0.80;99.90;;;;;;4996619;28;20038;-77
2022/03/26 03:37:10;;;;;;;173.95;61.42;;;0.80;99.90;;;;;;4995990;28;20093;-78
2022/03/26 03:39:35;;;;;;;191.38;62.13;;;0.80;99.90;;;;;;4995862;28;20481;-78
2022/03/26 03:42:02;;;;;;;195.88;62.10;;;0.80;99.90;;;;;;4996281;28;20085;-78
2022/03/26 03:44:28;;;;;;;189.93;58.63;;;0.80;99.90;;;;;;4996187;28;20104;-78
2022/03/26 03:46:53;;;;;;;177.07;56.28;;;0.80;99.90;;;;;;4995275;28;20046;-78
2022/03/26 03:49:19;;;;;;;175.02;58.78;;;0.80;99.90;;;;;;4996410;28;20405;-78
2022/03/26 03:51:45;;;;;;;173.75;56.05;;;0.80;99.90;;;;;;4996343;28;20577;-78
2022/03/26 03:54:11;;;;;;;205.48;62.45;;;0.80;99.90;;;;;;4996178;28;20041;-78
2022/03/26 03:56:37;;;;;;;194.38;59.78;;;0.70;99.90;;;;;;4996112;28;20089;-78
2022/03/26 03:59:03;;;;;;;183.40;56.03;;;0.80;99.90;;;;;;4996025;28;20085;-78
2022/03/26 04:01:29;;;;;;;200.27;62.40;;;0.70;99.90;;;;;;4995964;28;20447;-78
2022/03/26 04:03:54;;;;;;;179.18;58.83;;;0.80;99.90;;;;;;4996036;28;20420;-78
2022/03/26 04:06:20;;;;;;;179.07;56.65;;;0.80;99.90;;;;;;4995970;28;20038;-78
2022/03/26 04:08:45;;;;;;;169.18;54.75;;;0.70;99.90;;;;;;4994690;28;20050;-79
2022/03/26 04:11:11;;;;;;;201.20;62.10;;;0.70;99.90;;;;;;4994704;28;20054;-77
2022/03/26 04:13:37;;;;;;;204.73;65.82;;;0.60;99.90;;;;;;4995496;28;20042;-77
2022/03/26 04:16:03;;;;;;;229.65;69.65;;;0.60;99.90;;;;;;4994171;28;20038;-78
2022/03/26 04:18:28;;;;;;;210.07;69.57;;;0.50;99.90;;;;;;4995489;28;20077;-78
2022/03/26 04:20:54;;;;;;;202.15;62.67;;;0.50;99.90;;;;;;4995278;28;20078;-78
2022/03/26 04:23:20;;;;;;;212.95;66.05;;;0.40;99.90;;;;;;4995622;28;20050;-78
2022/03/26 04:25:46;;;;;;;239.50;69.68;;;0.40;99.90;;;;;;4995338;28;20065;-77
2022/03/26 04:28:12;;;;;;;243.13;70.03;;;0.30;99.90;;;;;;4995155;28;20042;-78
2022/03/26 04:30:38;;;;;;;256.27;77.15;;;0.30;99.90;;;;;;4995640;28;20173;-78
2022/03/26 04:33:04;;;;;;;260.33;78.03;;;0.40;99.90;;;;;;4994292;28;20046;-78
2022/03/26 04:35:30;;;;;;;262.35;76.40;;;0.50;99.90;;;;;;4995263;28;20042;-78
2022/03/26 04:37:56;;;;;;;262.60;77.80;;;0.60;99.90;;;;;;4994268;28;20125;-78
2022/03/26 04:40:23;;;;;;;295.13;80.93;;;0.70;99.90;;;;;;4995677;28;20177;-78
2022/03/26 04:42:49;;;;;;;252.57;75.93;;;0.60;99.90;;;;;;4995399;28;20050;-78
2022/03/26 04:45:15;;;;;;;258.00;73.68;;;0.60;99.90;;;;;;4995393;28;20053;-78
2022/03/26 04:47:41;;;;;;;251.20;67.75;;;0.60;99.90;;;;;;4995415;28;20045;-78
2022/03/26 04:50:08;;;;;;;227.30;65.82;;;0.60;99.90;;;;;;4994050;28;20121;-78
2022/03/26 04:52:34;;;;;;;281.25;73.47;;;0.60;99.90;;;;;;4994930;28;20080;-77
2022/03/26 04:55:00;;;;;;;248.73;69.25;;;0.60;99.90;;;;;;4994614;28;20129;-78
2022/03/26 04:57:25;;;;;;;252.73;71.80;;;0.60;99.90;;;;;;4994992;28;20047;-78
2022/03/26 04:59:51;;;;;;;271.73;74.68;;;0.60;99.90;;;;;;4994650;28;20042;-78
2022/03/26 05:02:17;;;;;;;275.25;76.90;;;0.60;99.90;;;;;;4994964;28;20046;-78
2022/03/26 05:04:42;;;;;;;295.77;75.55;;;0.60;99.90;;;;;;4994718;28;20081;-78
2022/03/26 05:09:52;;;;;;;322.95;90.85;;;0.60;99.90;;;;;;4994779;28;20456;-78
2022/03/26 05:12:19;;;;;;;376.55;89.68;;;0.60;99.90;;;;;;4994417;28;20042;-78
2022/03/26 05:14:44;;;;;;;366.35;89.78;;;0.60;99.90;;;;;;4994704;28;20089;-78
2022/03/26 05:17:10;;;;;;;392.52;97.80;;;0.70;99.90;;;;;;4994879;28;20038;-78
2022/03/26 05:19:36;;;;;;;395.98;101.65;;;0.80;99.90;;;;;;4992787;28;20061;-78
2022/03/26 05:22:02;;;;;;;437.80;102.68;;;0.80;99.90;;;;;;4994376;28;20043;-79
2022/03/26 05:24:27;;;;;;;426.35;107.68;;;0.90;99.90;;;;;;4994108;28;20038;-78
2022/03/26 05:26:53;;;;;;;420.20;101.53;;;1.00;99.90;;;;;;4993218;28;20054;-78
2022/03/26 05:29:18;;;;;;;420.85;101.63;;;1.10;99.90;;;;;;4992912;28;20085;-78
2022/03/26 05:31:44;;;;;;;437.02;109.57;;;1.10;99.90;;;;;;4992931;28;20043;-79
2022/03/26 05:34:09;;;;;;;436.17;111.47;;;1.10;99.90;;;;;;4994082;28;20042;-78
2022/03/26 05:36:35;;;;;;;435.40;108.30;;;1.20;99.90;;;;;;4994382;28;20038;-78
2022/03/26 05:39:01;;;;;;;435.23;107.85;;;1.20;99.90;;;;;;4993675;28;20050;-78
2022/03/26 05:41:27;;;;;;;430.75;107.47;;;1.20;99.90;;;;;;4994042;28;20093;-78
2022/03/26 05:43:53;;;;;;;435.50;108.07;;;1.30;99.90;;;;;;4994076;28;20057;-78
2022/03/26 05:46:20;;;;;;;430.38;109.45;;;1.30;99.90;;;;;;4994358;28;20052;-78
2022/03/26 05:48:45;;;;;;;397.60;98.97;;;1.30;99.90;;;;;;4992525;28;20073;-78
2022/03/26 05:51:11;;;;;;;446.67;110.72;;;1.30;99.90;;;;;;4993864;28;20045;-78
2022/03/26 05:53:37;;;;;;;399.30;103.80;;;1.40;99.90;;;;;;4992451;28;20046;-78
2022/03/26 05:56:03;;;;;;;420.98;104.28;;;1.40;99.90;;;;;;4994624;28;20076;-78
2022/03/26 05:58:28;;;;;;;427.65;102.53;;;1.50;99.90;;;;;;4994156;28;20042;-79
2022/03/26 06:00:54;;;;;;;388.52;99.43;;;1.60;99.90;;;;;;4994233;28;20050;-78
2022/03/26 06:03:20;;;;;;;349.70;93.53;;;1.70;99.90;;;;;;4994325;28;20081;-78
2022/03/26 06:05:46;;;;;;;368.50;91.43;;;1.60;99.90;;;;;;4994598;28;20078;-78
2022/03/26 06:08:12;;;;;;;381.75;94.50;;;1.60;99.90;;;;;;4994196;28;20043;-77
2022/03/26 06:10:38;;;;;;;383.58;98.13;;;1.60;99.90;;;;;;4993940;28;20046;-78
2022/03/26 06:13:03;;;;;;;395.27;104.10;;;1.70;99.90;;;;;;4994063;28;20038;-78
2022/03/26 06:15:29;;;;;;;388.95;102.35;;;1.70;99.90;;;;;;4992677;28;20058;-79
2022/03/26 06:17:54;;;;;;;430.00;105.05;;;1.80;99.90;;;;;;4993412;28;20038;-78
2022/03/26 06:20:20;;;;;;;409.08;108.95;;;2.00;99.90;;;;;;4993585;28;20464;-78
2022/03/26 06:22:46;;;;;;;431.40;111.85;;;2.20;99.90;;;;;;4993785;28;20386;-78
2022/03/26 06:25:12;;;;;;;426.05;115.88;;;2.80;99.90;;;;;;4992449;28;20060;-79
2022/03/26 06:27:38;;;;;;;351.02;107.82;;;3.50;99.90;;;;;;4994324;28;20153;-78
2022/03/26 06:30:04;;;;;;;334.77;107.93;;;4.10;99.90;;;;;;4993970;28;20046;-79
2022/03/26 06:32:29;;;;;;;332.60;104.50;;;4.60;99.90;;;;;;4994151;28;20038;-78
2022/03/26 06:34:55;;;;;;;321.27;108.47;;;4.90;99.90;;;;;;4993804;28;20452;-78
2022/03/26 06:37:21;;;;;;;303.05;102.30;;;5.00;99.90;;;;;;4993630;28;20046;-78
2022/03/26 06:39:46;;;;;;;315.25;103.78;;;4.80;99.90;;;;;;4993664;28;20053;-78
2022/03/26 06:42:12;;;;;;;286.80;94.00;;;4.60;99.90;;;;;;4994087;28;20489;-78
2022/03/26 06:44:38;;;;;;;278.17;95.30;;;4.50;99.90;;;;;;4993911;28;20080;-78
2022/03/26 06:47:04;;;;;;;269.92;95.03;;;4.50;99.90;;;;;;4994598;28;20188;-78
2022/03/26 06:49:31;;;;;;;277.10;100.05;;;4.50;99.90;;;;;;4994393;28;20046;-78
2022/03/26 06:51:57;;;;;;;265.42;96.22;;;4.50;99.90;;;;;;4992674;28;20494;-78
2022/03/26 06:54:23;;;;;;;253.52;94.25;;;4.50;99.90;;;;;;4992122;28;20050;-78
2022/03/26 06:56:48;;;;;;;251.20;92.03;;;5.00;99.90;;;;;;4992421;28;20571;-78
2022/03/26 06:59:14;;;;;;;233.98;88.70;;;4.70;99.90;;;;;;4993800;28;20129;-78
2022/03/26 07:01:40;;;;;;;220.35;84.72;;;4.80;99.90;;;;;;4993940;28;20112;-79
2022/03/26 07:04:07;;;;;;;201.57;83.53;;;5.00;99.90;;;;;;5001859;28;20038;-79
2022/03/26 07:06:33;;;;;;;204.80;84.55;;;5.20;99.90;;;;;;5003751;28;20053;-78
2022/03/26 07:09:00;;;;;;;192.20;81.25;;;5.30;99.90;;;;;;5005898;28;20111;-78
2022/03/26 07:11:25;;;;;;;193.60;78.68;;;6.30;99.90;;;;;;5012932;28;20567;-79
2022/03/26 07:13:51;;;;;;;172.63;78.50;;;5.60;99.90;;;;;;4997377;28;20045;-78
2022/03/26 07:16:17;;;;;;;168.18;74.65;;;5.70;99.90;;;;;;5015902;28;20046;-78
2022/03/26 07:18:43;;;;;;;160.27;70.18;;;5.90;99.90;;;;;;5015189;28;20042;-78
2022/03/26 07:21:08;;;;;;;168.40;76.57;;;6.00;99.90;;;;;;5014649;28;20103;-78
2022/03/26 07:23:34;;;;;;;160.52;71.53;;;6.20;99.90;;;;;;5014505;28;20184;-78
2022/03/26 07:26:01;;;;;;;159.38;72.13;;;6.30;99.90;;;;;;4997867;28;20037;-77
2022/03/26 07:28:27;;;;;;;157.95;69.72;;;6.50;99.90;;;;;;5015435;28;20046;-78
2022/03/26 07:30:52;;;;;;;151.13;68.78;;;6.60;99.90;;;;;;5014777;28;20042;-78
2022/03/26 07:33:18;;;;;;;140.40;67.93;;;6.70;99.90;;;;;;5015028;28;20456;-78
2022/03/26 07:35:45;;;;;;;148.63;68.90;;;6.90;99.90;;;;;;5016378;28;20106;-78
2022/03/26 07:38:11;;;;;;;142.55;67.38;;;7.00;99.90;;;;;;5014838;28;20542;-78
2022/03/26 07:40:36;;;;;;;135.23;66.30;;;7.20;99.90;;;;;;5014285;28;20464;-78
2022/03/26 07:43:02;;;;;;;130.73;62.72;;;7.90;99.90;;;;;;5014429;28;20151;-78
2022/03/26 07:45:28;;;;;;;120.03;56.03;;;7.50;99.90;;;;;;5012539;28;20050;-78
2022/03/26 07:47:55;;;;;;;141.57;61.97;;;7.70;99.90;;;;;;5013557;28;20108;-77
2022/03/26 07:50:20;;;;;;;121.53;59.60;;;7.90;99.90;;;;;;5012672;28;20054;-78
2022/03/26 07:52:46;;;;;;;126.20;59.80;;;8.00;99.90;;;;;;5013563;28;20069;-78
2022/03/26 07:55:11;;;;;;;121.40;57.97;;;8.10;99.90;;;;;;5013633;28;20128;-78
2022/03/26 07:57:37;;;;;;;110.97;53.33;;;8.20;99.90;;;;;;5013728;28;20050;-78
2022/03/26 08:00:04;;;;;;;104.18;52.40;;;8.80;99.90;;;;;;5014183;28;20042;-79
2022/03/26 08:02:30;;;;;;;107.93;52.40;;;8.60;99.90;;;;;;5014778;28;20386;-78
2022/03/26 08:04:55;;;;;;;103.45;48.85;;;8.80;99.90;;;;;;5014482;28;20095;-78
2022/03/26 08:07:21;;;;;;;101.70;50.03;;;8.90;99.90;;;;;;5000152;28;20497;-79
2022/03/26 08:09:47;;;;;;;102.97;49.17;;;9.10;99.90;;;;;;4994051;28;20081;-78
2022/03/26 08:12:13;;;;;;;95.65;48.60;;;9.20;99.90;;;;;;4993597;28;20042;-79
2022/03/26 08:14:39;;;;;;;93.93;45.78;;;9.30;99.90;;;;;;4993440;28;20081;-79
2022/03/26 08:17:04;;;;;;;97.10;46.88;;;9.40;99.90;;;;;;4993667;28;20506;-78
2022/03/26 08:19:32;;;;;;;98.63;47.65;;;9.50;99.90;;;;;;4994248;28;20088;-78
2022/03/26 08:21:57;;;;;;;103.75;50.20;;;9.40;99.90;;;;;;4993648;28;20570;-78
2022/03/26 08:24:23;;;;;;;87.75;47.03;;;9.80;99.90;;;;;;4991809;28;20073;-78
2022/03/26 08:26:49;;;;;;;90.65;42.63;;;9.90;99.90;;;;;;4993576;28;20128;-78
2022/03/26 08:29:14;;;;;;;86.50;40.47;;;10.20;99.90;;;;;;4992307;28;20050;-78
2022/03/26 08:31:40;;;;;;;78.30;38.70;;;10.60;99.90;;;;;;4993619;28;20544;-78
2022/03/26 08:34:05;;;;;;;82.93;42.80;;;10.70;99.90;;;;;;4993612;28;20042;-79
2022/03/26 08:36:31;;;;;;;81.05;42.15;;;10.80;99.90;;;;;;4993297;28;20108;-79
2022/03/26 08:38:57;;;;;;;77.63;39.35;;;10.90;99.90;;;;;;4993352;28;20151;-78
2022/03/26 08:41:23;;;;;;;80.15;41.67;;;11.00;99.90;;;;;;4993323;28;20045;-78
2022/03/26 08:43:50;;;;;;;72.15;38.53;;;11.10;99.90;;;;;;4993654;28;20064;-78
2022/03/26 08:46:18;;;;;;;81.50;42.17;;;11.40;99.90;;;;;;4995743;28;20089;-78
2022/03/26 08:48:43;;;;;;;74.63;39.28;;;11.90;99.90;;;;;;4995201;28;20082;-79
2022/03/26 08:51:09;;;;;;;71.90;37.03;;;12.70;99.90;;;;;;5008026;28;20046;-78
2022/03/26 08:53:35;;;;;;;70.50;35.47;;;13.30;99.90;;;;;;5006675;28;20046;-78
2022/03/26 08:56:00;;;;;;;68.60;33.80;;;13.80;99.90;;;;;;4995154;28;20425;-79
2022/03/26 08:58:26;;;;;;;65.05;33.67;;;14.10;99.90;;;;;;4994715;28;20054;-78
2022/03/26 09:00:52;;;;;;;59.13;33.13;;;14.50;99.90;;;;;;4993331;28;20038;-79
2022/03/26 09:03:20;;;;;;;58.45;32.95;;;15.30;99.90;;;;;;4994005;28;20426;-78
2022/03/26 09:05:50;;;;;;;54.88;34.05;;;15.80;99.90;;;;;;4993394;28;20046;-79
2022/03/26 09:08:16;;;;;;;60.08;32.85;;;15.70;99.90;;;;;;4991709;28;20050;-78
2022/03/26 09:10:42;;;;;;;61.88;33.10;;;16.00;99.90;;;;;;4992954;28;20046;-79
2022/03/26 09:13:08;;;;;;;46.25;29.13;;;16.50;99.90;;;;;;4993497;28;20125;-79
2022/03/26 09:15:34;;;;;;;56.72;32.08;;;16.40;97.00;;;;;;4993009;28;20109;-79
2022/03/26 09:18:02;;;;;;;53.00;31.23;;;15.70;99.90;;;;;;4992803;28;20050;-78
2022/03/26 09:20:28;;;;;;;48.97;30.63;;;16.00;99.90;;;;;;4992463;28;20050;-77
2022/03/26 09:22:54;;;;;;;89.90;31.02;;;16.60;99.90;;;;;;4991766;28;20104;-77
2022/03/26 09:25:20;;;;;;;48.55;29.00;;;16.20;95.70;;;;;;4990731;28;20042;-77
2022/03/26 09:27:47;;;;;;;45.05;27.95;;;16.80;98.70;;;;;;4992027;28;20058;-77
2022/03/26 09:30:15;;;;;;;45.97;28.27;;;16.70;96.70;;;;;;4991920;28;20050;-77
2022/03/26 09:32:41;;;;;;;41.47;27.00;;;17.00;95.00;;;;;;4993449;28;20054;-77
2022/03/26 09:35:07;;;;;;;38.42;25.20;;;17.50;91.50;;;;;;4995253;28;20488;-77
2022/03/26 09:37:32;;;;;;;39.80;25.95;;;17.10;88.90;;;;;;4992157;28;20109;-80
2022/03/26 09:39:58;;;;;;;40.90;25.00;;;17.00;90.10;;;;;;4994144;28;20500;-80
2022/03/26 09:42:26;;;;;;;38.60;23.25;;;17.40;92.00;;;;;;4994240;28;20050;-80
2022/03/26 09:44:51;;;;;;;37.45;24.52;;;17.80;90.80;;;;;;4991674;28;20066;-80
2022/03/26 09:47:17;;;;;;;34.40;22.98;;;17.80;90.40;;;;;;4991055;28;20056;-80
2022/03/26 09:49:43;;;;;;;36.22;22.25;;;17.70;81.00;;;;;;4991908;28;20073;-81
2022/03/26 09:52:09;;;;;;;36.00;23.88;;;17.60;82.10;;;;;;4990542;28;20052;-80
2022/03/26 09:54:38;;;;;;;38.35;23.42;;;17.50;80.50;;;;;;4992703;28;20046;-80
2022/03/26 09:57:04;;;;;;;34.17;23.15;;;17.40;76.20;;;;;;4992665;28;20089;-80
2022/03/26 09:59:33;;;;;;;34.15;20.05;;;17.30;82.70;;;;;;4993219;28;20183;-80
2022/03/26 10:01:58;;;;;;;35.05;21.02;;;17.30;86.60;;;;;;4996747;28;20090;-81
2022/03/26 10:04:26;;;;;;;41.10;20.88;;;17.20;75.80;;;;;;4993681;28;20050;-80
2022/03/26 10:06:54;;;;;;;34.97;19.95;;;16.90;78.10;;;;;;4994404;28;20061;-81
2022/03/26 10:09:36;;;;;;;34.15;19.67;;;16.60;89.10;;;;;;4994733;28;20081;-81
2022/03/26 10:12:03;;;;;;;28.60;19.08;;;16.40;86.20;;;;;;4994104;28;20042;-81
2022/03/26 10:14:38;;;;;;;29.90;17.98;;;16.50;89.70;;;;;;4998795;28;20038;-80
2022/03/26 10:17:18;;;;;;;31.55;17.90;;;16.60;86.80;;;;;;4998850;28;20450;-81
2022/03/26 10:19:56;;;;;;;27.20;17.73;;;16.90;83.90;;;;;;4992885;28;20440;-81
2022/03/26 10:22:34;;;;;;;31.50;18.75;;;16.90;83.90;;;;;;4995015;28;20047;-80
2022/03/26 10:25:05;;;;;;;30.83;19.50;;;17.20;82.00;;;;;;4992166;28;20062;-81
2022/03/26 10:27:36;;;;;;;28.88;18.60;;;17.30;84.70;;;;;;4994660;28;20049;-81
2022/03/26 10:30:04;;;;;;;25.70;15.98;;;17.40;81.10;;;;;;4993947;28;20125;-81
2022/03/26 10:32:49;;;;;;;20.15;12.60;;;17.40;79.90;;;;;;4993738;28;20101;-80
2022/03/26 10:35:19;;;;;;;17.85;10.32;;;17.40;72.80;;;;;;4992102;28;20493;-81
2022/03/26 10:37:58;;;;;;;21.20;10.05;;;16.90;73.80;;;;;;4994083;28;20057;-80
2022/03/26 10:40:36;;;;;;;20.23;9.70;;;16.60;77.40;;;;;;4993159;28;20047;-80
2022/03/26 10:43:11;;;;;;;16.45;9.50;;;16.30;75.80;;;;;;4994334;28;20050;-80
2022/03/26 10:45:48;;;;;;;16.70;8.05;;;16.40;76.70;;;;;;4993755;28;20497;-79
2022/03/26 10:48:14;;;;;;;13.60;8.57;;;16.30;73.60;;;;;;4996193;28;20078;-80
2022/03/26 10:50:40;;;;;;;14.88;10.00;;;16.60;70.50;;;;;;4997550;28;20104;-80
2022/03/26 10:53:08;;;;;;;11.20;7.03;;;17.00;73.70;;;;;;4997924;28;20477;-80
2022/03/26 10:55:36;;;;;;;9.43;5.28;;;16.90;69.40;;;;;;4997184;28;20046;-79
2022/03/26 10:58:05;;;;;;;13.70;7.97;;;16.40;67.30;;;;;;4997901;28;20055;-80
2022/03/26 11:00:30;;;;;;;10.68;6.68;;;17.10;72.70;;;;;;4997910;28;20519;-80
2022/03/26 11:02:56;;;;;;;11.05;6.60;;;16.50;69.50;;;;;;4997766;28;20047;-80
2022/03/26 11:05:22;;;;;;;12.50;7.53;;;16.60;73.70;;;;;;4997049;28;20061;-79
2022/03/26 11:07:50;;;;;;;19.33;8.52;;;16.50;70.80;;;;;;4998813;28;20549;-80
2022/03/26 11:10:15;;;;;;;10.82;6.68;;;16.60;69.80;;;;;;4998424;28;20086;-80
2022/03/26 11:12:45;;;;;;;13.18;7.93;;;16.70;69.60;;;;;;4998085;28;20487;-79
2022/03/26 11:15:26;;;;;;;14.45;8.80;;;16.70;74.40;;;;;;4999838;28;20050;-78
2022/03/26 11:18:05;;;;;;;16.73;8.27;;;16.80;70.50;;;;;;4997554;28;20106;-79
2022/03/26 11:21:01;;;;;;;11.68;7.43;;;16.50;74.10;;;;;;4997882;28;20085;-79
2022/03/26 11:23:54;;;;;;;13.18;8.30;;;16.70;70.50;;;;;;4998062;28;20048;-79
2022/03/26 11:27:04;;;;;;;12.15;7.47;;;17.00;70.10;;;;;;4997152;28;20089;-75
2022/03/26 11:30:02;;;;;;;11.65;6.90;;;17.50;66.10;;;;;;4969257;28;20050;-78
2022/03/26 11:32:45;;;;;;;20.33;7.20;;;17.70;60.10;;;;;;4999061;28;20129;-80
2022/03/26 11:35:14;;;;;;;11.95;6.88;;;17.80;59.30;;;;;;4988167;28;20054;-85
2022/03/26 11:38:02;;;;;;;11.20;5.95;;;17.70;62.30;;;;;;4984063;28;20043;-81
2022/03/26 11:40:50;;;;;;;11.98;6.53;;;17.80;68.50;;;;;;4979945;28;20042;-81
2022/03/26 11:43:38;;;;;;;9.80;6.55;;;17.50;65.80;;;;;;4980352;28;20059;-80
2022/03/26 11:51:37;;;;;;;14.38;5.53;;;17.00;67.70;;;;;;5002108;28;20124;-80
2022/03/26 11:54:18;;;;;;;11.05;5.28;;;17.00;70.10;;;;;;4999971;28;20065;-81
2022/03/26 11:56:45;;;;;;;7.65;4.95;;;17.30;66.30;;;;;;4982246;28;20042;-80
2022/03/26 11:59:16;;;;;;;9.18;5.40;;;17.30;70.20;;;;;;4992246;28;20489;-80
2022/03/26 12:01:47;;;;;;;9.30;4.80;;;17.50;61.80;;;;;;5007610;28;20046;-81
2022/03/26 12:04:17;;;;;;;8.27;4.65;;;17.20;66.00;;;;;;4986431;28;20409;-80
2022/03/26 12:06:55;;;;;;;8.60;4.53;;;17.30;65.40;;;;;;5002910;28;20508;-89
2022/03/26 12:09:33;;;;;;;10.93;5.03;;;17.30;66.20;;;;;;5016892;28;20078;-81
2022/03/26 12:12:08;;;;;;;10.93;4.10;;;17.40;62.30;;;;;;4987641;28;20160;-81
2022/03/26 12:15:03;;;;;;;9.93;4.25;;;17.30;62.10;;;;;;4998106;28;20050;-81
2022/03/26 12:17:44;;;;;;;9.10;4.60;;;17.00;62.90;;;;;;4980342;28;20083;-83
2022/03/26 12:20:35;;;;;;;8.77;4.78;;;16.80;61.70;;;;;;4999730;28;20042;-81
2022/03/26 12:23:08;;;;;;;10.60;4.53;;;17.10;64.10;;;;;;5001064;28;20042;-84
2022/03/26 12:25:35;;;;;;;8.88;3.92;;;17.40;64.20;;;;;;5002149;28;20077;-85
2022/03/26 12:28:01;;;;;;;10.15;4.05;;;17.70;62.20;;;;;;4998417;28;20038;-85
2022/03/26 12:30:26;;;;;;;7.93;3.90;;;17.50;62.20;;;;;;4979487;28;20130;-84
2022/03/26 12:32:52;;;;;;;16.25;3.95;;;17.50;57.10;;;;;;4995353;28;20050;-82
2022/03/26 12:35:18;;;;;;;7.60;4.25;;;17.40;65.40;;;;;;4980414;28;20631;-79
2022/03/26 12:37:49;;;;;;;7.18;4.13;;;17.40;65.60;;;;;;4996070;28;20038;-80